createdAt,value
2022-09-17T00:01:47.369Z,77.79
2022-09-17T00:04:15.751Z,78.02
2022-09-17T00:06:44.165Z,78.28
2022-09-17T00:09:12.957Z,77.54
2022-09-17T00:11:43.721Z,77.87
2022-09-17T00:14:17.550Z,77.57
2022-09-17T00:16:49.147Z,78.24
2022-09-17T00:19:20.252Z,78.35
2022-09-17T00:21:48.751Z,77.76
2022-09-17T00:24:18.670Z,78.18
2022-09-17T00:26:47.932Z,77.73
2022-09-17T00:29:17.682Z,77.37
2022-09-17T00:31:46.277Z,77.04
2022-09-17T00:34:14.632Z,77.43
2022-09-17T00:36:43.265Z,77.90
2022-09-17T00:39:15.668Z,78.50
2022-09-17T00:41:44.815Z,78.56
2022-09-17T00:44:54.835Z,78.55
2022-09-17T00:47:31.212Z,78.37
2022-09-17T00:50:05.154Z,78.10
2022-09-17T00:52:40.384Z,78.44
2022-09-17T00:55:15.203Z,79.13
2022-09-17T00:57:45.971Z,78.89
2022-09-17T01:00:17.311Z,79.21
2022-09-17T01:02:46.248Z,79.01
2022-09-17T01:05:15.287Z,78.50
2022-09-17T01:08:00.219Z,78.25
2022-09-17T01:11:03.122Z,78.92
2022-09-17T01:13:44.596Z,80.10
2022-09-17T01:16:22.085Z,79.80
2022-09-17T01:19:06.581Z,79.01
2022-09-17T01:21:52.164Z,79.56
2022-09-17T01:25:09.460Z,79.00
2022-09-17T01:28:18.898Z,79.12
2022-09-17T01:31:37.304Z,79.04
2022-09-17T01:34:15.714Z,78.84
2022-09-17T01:36:56.614Z,78.51
2022-09-17T01:39:36.467Z,78.70
2022-09-17T01:42:17.112Z,78.79
2022-09-17T01:44:54.948Z,78.70
2022-09-17T01:47:29.161Z,79.62
2022-09-17T01:50:02.974Z,78.66
2022-09-17T01:52:34.324Z,79.46
2022-09-17T01:55:07.060Z,79.27
2022-09-17T01:57:41.930Z,78.87
2022-09-17T02:00:13.838Z,79.02
2022-09-17T02:02:49.009Z,78.92
2022-09-17T02:05:22.286Z,78.74
2022-09-17T02:07:55.767Z,79.26
2022-09-17T02:10:28.188Z,79.21
2022-09-17T02:13:02.174Z,79.01
2022-09-17T02:15:36.099Z,78.75
2022-09-17T02:18:12.840Z,79.18
2022-09-17T02:20:46.206Z,79.37
2022-09-17T02:23:19.734Z,78.31
2022-09-17T02:25:54.374Z,78.85
2022-09-17T02:28:29.062Z,79.22
2022-09-17T02:30:57.507Z,79.09
2022-09-17T02:33:28.957Z,78.65
2022-09-17T02:35:57.437Z,78.54
2022-09-17T02:38:28.040Z,79.84
2022-09-17T02:41:07.487Z,81.00
2022-09-17T02:43:43.251Z,81.66
2022-09-17T02:46:35.180Z,82.55
2022-09-17T02:49:21.515Z,83.94
2022-09-17T02:52:02.366Z,83.18
2022-09-17T02:54:40.027Z,82.33
2022-09-17T02:57:17.181Z,83.18
2022-09-17T02:59:53.951Z,82.58
2022-09-17T03:02:26.504Z,82.43
2022-09-17T03:04:57.644Z,82.34
2022-09-17T03:07:29.198Z,81.91
2022-09-17T03:09:58.010Z,82.99
2022-09-17T03:12:26.860Z,83.64
2022-09-17T03:14:55.136Z,84.09
2022-09-17T03:17:23.622Z,84.71
2022-09-17T03:19:51.992Z,85.55
2022-09-17T03:22:21.745Z,86.64
2022-09-17T03:24:50.139Z,86.83
2022-09-17T03:27:18.573Z,86.65
2022-09-17T03:29:46.948Z,87.49
2022-09-17T03:32:15.440Z,87.96
2022-09-17T03:34:43.793Z,88.46
2022-09-17T03:37:12.083Z,88.94
2022-09-17T03:39:41.794Z,90.12
2022-09-17T03:42:10.167Z,89.75
2022-09-17T03:44:41.371Z,89.11
2022-09-17T03:47:12.572Z,89.63
2022-09-17T03:49:40.927Z,89.50
2022-09-17T03:52:09.316Z,89.15
2022-09-17T03:54:37.644Z,90.47
2022-09-17T03:57:07.395Z,90.14
2022-09-17T03:59:35.709Z,91.71
2022-09-17T04:02:04.163Z,91.63
2022-09-17T04:04:32.605Z,92.10
2022-09-17T04:07:01.072Z,91.76
2022-09-17T04:09:30.036Z,91.90
2022-09-17T04:11:58.626Z,92.32
2022-09-17T04:14:28.393Z,93.06
2022-09-17T04:16:56.785Z,93.53
2022-09-17T04:19:25.067Z,94.28
2022-09-17T04:21:53.852Z,94.12
2022-09-17T04:24:22.136Z,93.43
2022-09-17T04:26:50.528Z,93.69
2022-09-17T04:29:18.848Z,93.40
2022-09-17T04:31:48.509Z,94.18
2022-09-17T04:34:16.902Z,93.96
2022-09-17T04:36:45.245Z,94.93
2022-09-17T04:39:13.732Z,95.33
2022-09-17T04:41:42.162Z,96.58
2022-09-17T04:44:10.489Z,96.48
2022-09-17T04:46:38.919Z,95.66
2022-09-17T04:49:08.837Z,96.26
2022-09-17T04:51:37.236Z,94.70
2022-09-17T04:54:06.104Z,94.73
2022-09-17T04:56:34.496Z,96.23
2022-09-17T04:59:02.871Z,95.46
2022-09-17T05:01:31.228Z,92.93
2022-09-17T05:03:59.637Z,93.81
2022-09-17T05:06:29.454Z,94.49
2022-09-17T05:08:57.788Z,93.24
2022-09-17T05:11:26.197Z,93.74
2022-09-17T05:13:54.569Z,94.16
2022-09-17T05:16:23.105Z,94.71
2022-09-17T05:18:51.802Z,94.08
2022-09-17T05:21:20.572Z,93.34
2022-09-17T05:23:50.477Z,92.81
2022-09-17T05:26:18.891Z,92.73
2022-09-17T05:28:47.457Z,91.99
2022-09-17T05:31:15.767Z,93.77
2022-09-17T05:33:44.080Z,93.12
2022-09-17T05:36:12.603Z,94.03
2022-09-17T05:38:40.918Z,94.84
2022-09-17T05:41:10.719Z,93.12
2022-09-17T05:43:39.069Z,94.46
2022-09-17T05:46:07.779Z,93.62
2022-09-17T05:48:36.682Z,93.78
2022-09-17T05:51:05.308Z,93.98
2022-09-17T05:53:33.685Z,93.62
2022-09-17T05:56:02.443Z,93.11
2022-09-17T05:58:34.442Z,93.69
2022-09-17T06:01:02.913Z,92.66
2022-09-17T06:03:31.474Z,92.33
2022-09-17T06:06:01.716Z,93.42
2022-09-17T06:08:30.964Z,92.44
2022-09-17T06:11:02.506Z,90.95
2022-09-17T06:13:40.660Z,91.13
2022-09-17T06:16:09.178Z,89.63
2022-09-17T06:18:37.546Z,90.10
2022-09-17T06:21:06.660Z,88.68
2022-09-17T06:23:37.177Z,88.22
2022-09-17T06:26:07.067Z,89.01
2022-09-17T06:28:41.454Z,88.72
2022-09-17T06:31:12.615Z,88.01
2022-09-17T06:33:41.374Z,89.04
2022-09-17T06:36:14.644Z,87.77
2022-09-17T06:38:43.731Z,87.80
2022-09-17T06:41:12.482Z,87.81
2022-09-17T06:43:42.183Z,87.93
2022-09-17T06:46:11.796Z,86.24
2022-09-17T06:48:40.325Z,85.59
2022-09-17T06:51:11.890Z,84.89
2022-09-17T06:53:41.018Z,84.76
2022-09-17T06:56:10.776Z,84.49
2022-09-17T06:58:41.957Z,85.67
2022-09-17T07:01:11.536Z,84.26
2022-09-17T07:03:42.790Z,83.23
2022-09-17T07:06:12.700Z,81.03
2022-09-17T07:08:41.912Z,81.10
2022-09-17T07:11:10.317Z,78.80
2022-09-17T07:13:38.665Z,78.99
2022-09-17T07:16:08.864Z,78.20
2022-09-17T07:18:37.253Z,76.94
2022-09-17T07:21:07.850Z,75.53
2022-09-17T07:23:37.963Z,74.44
2022-09-17T07:26:09.227Z,71.68
2022-09-17T07:28:40.711Z,68.32
2022-09-17T07:31:15.840Z,69.05
2022-09-17T07:33:45.760Z,67.38
2022-09-17T07:36:17.875Z,64.52
2022-09-17T07:38:47.191Z,63.71
2022-09-17T07:41:17.800Z,62.79
2022-09-17T07:43:46.895Z,61.82
2022-09-17T07:46:19.212Z,60.87
2022-09-17T07:48:47.853Z,59.90
2022-09-17T07:51:18.143Z,61.16
2022-09-17T07:53:47.701Z,61.02
2022-09-17T07:56:16.276Z,62.96
2022-09-17T07:58:44.641Z,62.58
2022-09-17T08:01:15.377Z,62.90
2022-09-17T08:03:49.628Z,64.94
2022-09-17T08:06:20.803Z,65.37
2022-09-17T08:08:50.386Z,65.75
2022-09-17T08:11:44.663Z,66.55
2022-09-17T08:14:13.782Z,66.94
2022-09-17T08:16:42.293Z,67.16
2022-09-17T08:19:12.082Z,67.75
2022-09-17T08:21:40.548Z,67.90
2022-09-17T08:24:09.107Z,68.02
2022-09-17T08:26:38.422Z,68.87
2022-09-17T08:29:07.375Z,69.09
2022-09-17T08:31:35.852Z,69.33
2022-09-17T08:34:08.631Z,69.99
2022-09-17T08:36:38.726Z,68.27
2022-09-17T08:39:07.399Z,65.93
2022-09-17T08:41:50.738Z,62.75
2022-09-17T08:44:27.684Z,60.60
2022-09-17T08:47:02.261Z,57.52
2022-09-17T08:49:35.955Z,55.56
2022-09-17T08:53:04.349Z,52.46
2022-09-17T08:55:41.802Z,51.72
2022-09-17T08:58:43.261Z,51.58
2022-09-17T09:01:32.183Z,51.68
2022-09-17T09:04:56.677Z,49.97
2022-09-17T09:07:29.225Z,49.86
2022-09-17T09:10:11.815Z,46.09
2022-09-17T09:12:43.877Z,47.39
2022-09-17T09:15:31.181Z,44.38
2022-09-17T09:18:04.487Z,47.86
2022-09-17T09:20:45.205Z,46.16
2022-09-17T09:23:21.613Z,47.57
2022-09-17T09:26:05.564Z,51.64
2022-09-17T09:28:45.236Z,52.92
2022-09-17T09:31:29.172Z,53.39
2022-09-17T09:33:58.943Z,52.14
2022-09-17T09:36:31.562Z,50.62
2022-09-17T09:39:04.419Z,49.25
2022-09-17T09:41:40.488Z,47.54
2022-09-17T09:44:14.400Z,50.47
2022-09-17T09:47:19.310Z,50.86
2022-09-17T09:50:16.596Z,52.94
2022-09-17T09:52:59.846Z,51.21
2022-09-17T09:55:49.482Z,53.44
2022-09-17T09:58:27.798Z,54.41
2022-09-17T10:00:57.690Z,54.05
2022-09-17T10:03:32.155Z,53.61
2022-09-17T10:06:03.229Z,52.96
2022-09-17T10:08:34.877Z,54.95
2022-09-17T10:11:06.373Z,53.88
2022-09-17T10:13:36.678Z,54.19
2022-09-17T10:16:21.671Z,54.41
2022-09-17T10:18:56.994Z,55.26
2022-09-17T10:21:33.910Z,56.79
2022-09-17T10:24:04.900Z,56.80
2022-09-17T10:26:36.948Z,57.06
2022-09-17T10:29:07.524Z,57.45
2022-09-17T10:31:50.086Z,57.15
2022-09-17T10:34:24.506Z,57.20
2022-09-17T10:36:53.466Z,55.93
2022-09-17T10:39:36.571Z,55.13
2022-09-17T10:42:07.384Z,53.72
2022-09-17T10:44:37.651Z,53.66
2022-09-17T10:47:15.091Z,53.52
2022-09-17T10:49:47.580Z,53.43
2022-09-17T10:52:26.182Z,55.05
2022-09-17T10:55:23.816Z,53.98
2022-09-17T10:58:14.690Z,53.97
2022-09-17T11:01:03.900Z,54.80
2022-09-17T11:04:21.874Z,52.21
2022-09-17T11:07:13.388Z,53.54
2022-09-17T11:09:54.584Z,52.76
2022-09-17T11:12:38.125Z,53.61
2022-09-17T11:15:25.007Z,52.49
2022-09-17T11:18:26.076Z,53.05
2022-09-17T11:21:29.979Z,51.71
2022-09-17T11:24:44.772Z,52.48
2022-09-17T11:27:31.320Z,51.71
2022-09-17T11:30:19.204Z,51.67
2022-09-17T11:33:13.272Z,52.00
2022-09-17T11:35:48.020Z,51.94
2022-09-17T11:38:25.199Z,51.78
2022-09-17T11:41:02.798Z,51.37
2022-09-17T11:43:34.766Z,51.05
2022-09-17T11:46:09.813Z,50.48
2022-09-17T11:48:46.690Z,58.93
2022-09-17T11:51:29.244Z,64.84
2022-09-17T11:54:06.882Z,64.94
2022-09-17T11:56:40.211Z,66.57
2022-09-17T11:59:22.270Z,67.44
2022-09-17T12:01:58.706Z,67.82
2022-09-17T12:04:45.699Z,68.38
2022-09-17T12:07:33.502Z,68.07
2022-09-17T12:10:21.738Z,66.35
2022-09-17T12:12:56.777Z,65.23
2022-09-17T12:15:29.135Z,64.07
2022-09-17T12:18:31.599Z,62.58
2022-09-17T12:21:04.800Z,61.21
2022-09-17T12:23:39.713Z,61.00
2022-09-17T12:26:29.431Z,58.25
2022-09-17T12:29:07.766Z,57.09
2022-09-17T12:31:51.287Z,56.24
2022-09-17T12:34:32.723Z,54.71
2022-09-17T12:37:10.057Z,55.19
2022-09-17T12:39:59.493Z,54.68
2022-09-17T12:43:01.082Z,53.70
2022-09-17T12:45:50.750Z,53.12
2022-09-17T12:49:02.266Z,52.76
2022-09-17T12:51:54.210Z,52.91
2022-09-17T12:54:58.524Z,50.79
2022-09-17T12:57:41.759Z,50.73
2022-09-17T13:00:13.755Z,50.25
2022-09-17T13:02:47.502Z,49.70
2022-09-17T13:05:42.550Z,50.22
2022-09-17T13:08:36.818Z,49.61
2022-09-17T13:11:41.287Z,50.35
2022-09-17T13:14:24.416Z,50.91
2022-09-17T13:16:59.155Z,50.59
2022-09-17T13:19:38.052Z,49.79
2022-09-17T13:22:23.767Z,47.95
2022-09-17T13:25:13.799Z,48.14
2022-09-17T13:27:43.251Z,46.92
2022-09-17T13:31:04.354Z,46.21
2022-09-17T13:34:40.251Z,45.86
2022-09-17T13:37:20.842Z,46.26
2022-09-17T13:39:58.913Z,47.15
2022-09-17T13:42:35.395Z,47.47
2022-09-17T13:45:34.507Z,47.34
2022-09-17T13:48:25.975Z,47.58
2022-09-17T13:51:48.206Z,47.18
2022-09-17T13:54:41.655Z,47.30
2022-09-17T13:57:14.681Z,47.51
2022-09-17T13:59:59.383Z,47.58
2022-09-17T14:02:37.398Z,47.79
2022-09-17T14:05:40.476Z,48.44
2022-09-17T14:08:31.576Z,47.82
2022-09-17T14:11:03.626Z,47.91
2022-09-17T14:13:45.972Z,48.33
2022-09-17T14:16:48.216Z,48.78
2022-09-17T14:19:28.902Z,48.88
2022-09-17T14:22:02.398Z,48.29
2022-09-17T14:24:38.415Z,47.69
2022-09-17T14:27:15.347Z,48.33
2022-09-17T14:30:07.869Z,48.13
2022-09-17T14:32:43.303Z,49.04
2022-09-17T14:35:20.644Z,48.98
2022-09-17T14:37:55.992Z,54.38
2022-09-17T14:40:26.158Z,61.59
2022-09-17T14:42:57.919Z,64.36
2022-09-17T14:45:30.973Z,66.59
2022-09-17T14:48:37.125Z,66.06
2022-09-17T14:51:29.603Z,65.67
2022-09-17T14:54:25.008Z,64.75
2022-09-17T14:56:57.675Z,64.01
2022-09-17T14:59:51.135Z,65.32
2022-09-17T15:02:38.115Z,65.63
2022-09-17T15:05:20.502Z,64.28
2022-09-17T15:07:49.479Z,63.47
2022-09-17T15:10:22.288Z,62.95
2022-09-17T15:12:52.698Z,62.91
2022-09-17T15:15:24.642Z,61.34
2022-09-17T15:17:54.269Z,59.77
2022-09-17T15:20:25.633Z,59.99
2022-09-17T15:23:06.178Z,60.68
2022-09-17T15:25:38.001Z,60.44
2022-09-17T15:28:18.385Z,60.41
2022-09-17T15:30:51.604Z,60.80
2022-09-17T15:33:20.476Z,60.46
2022-09-17T15:36:02.988Z,59.25
2022-09-17T15:38:33.027Z,59.76
2022-09-17T15:41:31.178Z,59.35
2022-09-17T15:44:36.834Z,58.70
2022-09-17T15:47:50.469Z,58.65
2022-09-17T15:50:22.000Z,58.73
2022-09-17T15:52:51.654Z,58.33
2022-09-17T15:55:38.261Z,59.71
2022-09-17T15:58:24.901Z,60.70
2022-09-17T16:01:53.625Z,62.00
2022-09-17T16:04:28.793Z,62.31
2022-09-17T16:07:29.907Z,61.39
2022-09-17T16:09:59.459Z,62.14
2022-09-17T16:12:30.134Z,62.59
2022-09-17T16:15:01.879Z,61.99
2022-09-17T16:17:44.419Z,61.80
2022-09-17T16:20:19.909Z,60.82
2022-09-17T16:22:49.060Z,61.33
2022-09-17T16:25:18.668Z,61.41
2022-09-17T16:27:52.524Z,61.47
2022-09-17T16:30:24.369Z,62.25
2022-09-17T16:32:53.876Z,62.92
2022-09-17T16:35:25.853Z,63.67
2022-09-17T16:37:57.152Z,64.48
2022-09-17T16:40:29.220Z,64.77
2022-09-17T16:43:01.209Z,64.90
2022-09-17T16:45:32.153Z,65.76
2022-09-17T16:48:00.608Z,65.48
2022-09-17T16:50:29.697Z,66.13
2022-09-17T16:53:02.769Z,66.04
2022-09-17T16:55:33.293Z,66.26
2022-09-17T16:58:01.791Z,65.60
2022-09-17T17:00:31.896Z,65.95
2022-09-17T17:03:00.541Z,65.43
2022-09-17T17:05:29.173Z,65.89
2022-09-17T17:07:58.114Z,66.23
2022-09-17T17:10:27.699Z,67.46
2022-09-17T17:12:56.302Z,67.35
2022-09-17T17:15:25.452Z,67.48
2022-09-17T17:17:55.718Z,68.02
2022-09-17T17:20:24.892Z,68.23
2022-09-17T17:22:53.342Z,68.33
2022-09-17T17:25:23.684Z,68.72
2022-09-17T17:27:52.502Z,69.11
2022-09-17T17:30:21.019Z,69.50
2022-09-17T17:32:52.528Z,69.02
2022-09-17T17:35:22.323Z,68.77
2022-09-17T17:37:50.778Z,66.88
2022-09-17T17:40:19.401Z,67.23
2022-09-17T17:42:53.709Z,66.82
2022-09-17T17:45:22.139Z,67.75
2022-09-17T17:47:50.579Z,67.91
2022-09-17T17:50:19.007Z,69.07
2022-09-17T17:52:49.145Z,70.95
2022-09-17T17:55:18.123Z,69.53
2022-09-17T17:57:46.559Z,69.58
2022-09-17T18:00:16.900Z,69.64
2022-09-17T18:02:45.357Z,70.34
2022-09-17T18:05:14.200Z,72.85
2022-09-17T18:07:42.630Z,70.70
2022-09-17T18:10:13.167Z,69.38
2022-09-17T18:12:41.766Z,70.12
2022-09-17T18:15:11.075Z,68.98
2022-09-17T18:17:39.520Z,67.79
2022-09-17T18:20:09.471Z,67.53
2022-09-17T18:22:38.192Z,68.17
2022-09-17T18:25:13.779Z,68.71
2022-09-17T18:27:42.294Z,68.87
2022-09-17T18:30:14.714Z,69.31
2022-09-17T18:32:43.469Z,68.85
2022-09-17T18:35:16.406Z,69.41
2022-09-17T18:37:44.800Z,69.46
2022-09-17T18:40:14.576Z,69.30
2022-09-17T18:42:50.424Z,68.83
2022-09-17T18:45:24.298Z,68.93
2022-09-17T18:48:13.708Z,69.36
2022-09-17T18:53:51.607Z,71.41
2022-09-17T18:56:29.526Z,71.66
2022-09-17T18:59:10.367Z,71.42
2022-09-17T19:01:58.636Z,71.37
2022-09-17T19:04:31.802Z,71.92
2022-09-17T19:07:03.627Z,71.82
2022-09-17T19:09:35.233Z,71.42
2022-09-17T19:12:08.123Z,71.62
2022-09-17T19:14:36.577Z,71.13
2022-09-17T19:17:06.899Z,70.60
2022-09-17T19:19:43.616Z,70.40
2022-09-17T19:22:11.996Z,69.79
2022-09-17T19:24:40.492Z,69.79
2022-09-17T19:27:10.827Z,70.19
2022-09-17T19:29:39.335Z,69.75
2022-09-17T19:32:07.798Z,69.83
2022-09-17T19:34:36.153Z,70.00
2022-09-17T19:37:04.753Z,70.13
2022-09-17T19:39:35.658Z,70.76
2022-09-17T19:42:04.058Z,70.59
2022-09-17T19:44:34.743Z,71.16
2022-09-17T19:47:03.110Z,71.17
2022-09-17T19:49:31.697Z,71.84
2022-09-17T19:52:00.346Z,71.29
2022-09-17T19:54:28.778Z,72.30
2022-09-17T19:56:57.259Z,71.84
2022-09-17T19:59:26.043Z,72.66
2022-09-17T20:01:56.145Z,72.91
2022-09-17T20:04:24.701Z,72.27
2022-09-17T20:06:53.432Z,72.93
2022-09-17T20:09:22.198Z,73.89
2022-09-17T20:11:50.678Z,75.20
2022-09-17T20:14:19.489Z,75.78
2022-09-17T20:16:48.035Z,75.84
2022-09-17T20:19:18.377Z,76.10
2022-09-17T20:21:47.085Z,76.48
2022-09-17T20:24:15.605Z,76.77
2022-09-17T20:26:44.065Z,77.76
2022-09-17T20:29:12.408Z,77.72
2022-09-17T20:31:40.927Z,77.86
2022-09-17T20:34:10.757Z,77.69
2022-09-17T20:36:40.463Z,78.10
2022-09-17T20:39:14.310Z,78.60
2022-09-17T20:41:46.555Z,79.05
2022-09-17T20:44:14.851Z,79.04
2022-09-17T20:46:43.162Z,78.89
2022-09-17T20:49:11.481Z,79.45
2022-09-17T20:51:41.479Z,78.65
2022-09-17T20:54:11.282Z,79.27
2022-09-17T20:56:39.599Z,79.31
2022-09-17T20:59:14.397Z,79.36
2022-09-17T21:01:45.798Z,79.02
2022-09-17T21:04:18.986Z,78.78
2022-09-17T21:06:52.742Z,79.12
2022-09-17T21:09:21.381Z,79.31
2022-09-17T21:11:50.636Z,79.60
2022-09-17T21:14:20.624Z,80.14
2022-09-17T21:16:49.116Z,80.96
2022-09-17T21:19:17.526Z,81.20
2022-09-17T21:21:46.140Z,81.20
2022-09-17T21:24:15.865Z,80.48
2022-09-17T21:26:45.836Z,81.19
2022-09-17T21:29:14.321Z,81.09
2022-09-17T21:31:42.731Z,81.53
2022-09-17T21:34:13.734Z,81.11
2022-09-17T21:36:44.617Z,81.05
2022-09-17T21:39:16.195Z,81.75
2022-09-17T21:41:45.642Z,82.43
2022-09-17T21:44:14.313Z,83.48
2022-09-17T21:46:44.045Z,83.66
2022-09-17T21:49:13.832Z,84.17
2022-09-17T21:51:43.868Z,84.86
2022-09-17T21:54:16.872Z,85.13
2022-09-17T21:56:46.096Z,85.19
2022-09-17T21:59:16.485Z,85.74
2022-09-17T22:01:48.565Z,86.84
2022-09-17T22:04:20.000Z,86.51
2022-09-17T22:06:50.336Z,87.58
2022-09-17T22:09:23.021Z,87.13
2022-09-17T22:11:52.501Z,86.84
2022-09-17T22:14:23.220Z,85.29
2022-09-17T22:16:53.940Z,85.60
2022-09-17T22:19:24.121Z,85.70
2022-09-17T22:21:54.734Z,85.99
2022-09-17T22:24:25.472Z,85.99
2022-09-17T22:26:58.421Z,86.79
2022-09-17T22:29:31.424Z,86.25
2022-09-17T22:31:59.802Z,86.03
2022-09-17T22:34:29.650Z,85.98
2022-09-17T22:36:59.132Z,86.04
2022-09-17T22:39:29.054Z,86.37
2022-09-17T22:41:57.422Z,86.35
2022-09-17T22:44:25.734Z,86.04
2022-09-17T22:46:54.160Z,86.55
2022-09-17T22:49:22.773Z,86.51
2022-09-17T22:51:51.399Z,86.97
2022-09-17T22:54:20.661Z,86.69
2022-09-17T22:56:50.513Z,86.75
2022-09-17T22:59:19.214Z,86.53
2022-09-17T23:01:47.952Z,86.50
2022-09-17T23:04:16.364Z,86.85
2022-09-17T23:06:44.720Z,86.96
2022-09-17T23:09:14.429Z,86.93
2022-09-17T23:11:42.940Z,87.26
2022-09-17T23:14:14.647Z,87.11
2022-09-17T23:16:45.727Z,87.00
2022-09-17T23:19:15.519Z,86.82
2022-09-17T23:21:44.216Z,86.85
2022-09-17T23:24:18.875Z,87.18
2022-09-17T23:26:47.584Z,87.63
2022-09-17T23:29:17.548Z,86.97
2022-09-17T23:31:45.925Z,86.46
2022-09-17T23:34:14.314Z,85.96
2022-09-17T23:36:42.613Z,85.47
2022-09-17T23:39:13.241Z,86.38
2022-09-17T23:41:45.416Z,85.56
2022-09-17T23:44:15.770Z,85.26
2022-09-17T23:46:47.142Z,85.72
2022-09-17T23:49:16.713Z,85.47
2022-09-17T23:51:45.576Z,84.96
2022-09-17T23:54:13.880Z,85.56
2022-09-17T23:56:42.230Z,85.36
2022-09-17T23:59:11.824Z,84.95
